createdAt,value
2019-05-10T00:01:44.891Z,87.20
2019-05-10T00:04:39.123Z,87.60
2019-05-10T00:07:28.445Z,87.60
2019-05-10T00:10:02.194Z,88.60
2019-05-10T00:12:47.477Z,87.90
2019-05-10T00:15:21.285Z,87.60
2019-05-10T00:17:55.753Z,87.70
2019-05-10T00:20:31.608Z,87.80
2019-05-10T00:23:08.179Z,88.00
2019-05-10T00:25:42.246Z,87.80
2019-05-10T00:28:16.510Z,87.70
2019-05-10T00:30:51.400Z,88.00
2019-05-10T00:33:23.153Z,87.60
2019-05-10T00:35:57.519Z,87.60
2019-05-10T00:38:36.490Z,87.40
2019-05-10T00:41:12.381Z,87.40
2019-05-10T00:43:51.869Z,87.40
2019-05-10T00:46:29.339Z,87.20
2019-05-10T00:49:03.855Z,86.70
2019-05-10T00:51:42.270Z,87.00
2019-05-10T00:54:13.882Z,86.90
2019-05-10T00:56:48.937Z,87.00
2019-05-10T00:59:20.267Z,86.50
2019-05-10T01:01:54.351Z,86.60
2019-05-10T01:04:27.725Z,87.00
2019-05-10T01:07:00.806Z,87.00
2019-05-10T01:09:36.929Z,87.10
2019-05-10T01:12:10.105Z,87.30
2019-05-10T01:14:45.960Z,87.60
2019-05-10T01:17:21.449Z,87.30
2019-05-10T01:19:54.867Z,87.60
2019-05-10T01:22:27.945Z,87.90
2019-05-10T01:25:01.903Z,88.60
2019-05-10T01:27:31.977Z,87.90
2019-05-10T01:30:07.637Z,88.00
2019-05-10T01:32:43.414Z,87.90
2019-05-10T01:35:15.235Z,88.10
2019-05-10T01:37:51.193Z,88.50
2019-05-10T01:40:24.042Z,88.30
2019-05-10T01:43:05.080Z,88.30
2019-05-10T01:45:35.238Z,88.50
2019-05-10T01:48:10.879Z,88.80
2019-05-10T01:50:47.547Z,88.90
2019-05-10T01:53:24.778Z,88.90
2019-05-10T01:56:00.432Z,88.90
2019-05-10T01:58:34.954Z,89.10
2019-05-10T02:01:08.453Z,88.90
2019-05-10T02:03:45.504Z,89.20
2019-05-10T02:06:18.654Z,89.40
2019-05-10T02:08:58.782Z,89.70
2019-05-10T02:11:35.065Z,89.70
2019-05-10T02:14:09.998Z,89.90
2019-05-10T02:16:45.240Z,90.00
2019-05-10T02:19:24.822Z,90.00
2019-05-10T02:22:05.290Z,90.20
2019-05-10T02:24:46.016Z,90.40
2019-05-10T02:27:26.476Z,90.40
2019-05-10T02:30:05.242Z,90.30
2019-05-10T02:32:42.692Z,90.50
2019-05-10T02:35:24.835Z,90.70
2019-05-10T02:38:04.436Z,90.80
2019-05-10T02:40:47.412Z,91.10
2019-05-10T02:43:28.444Z,91.00
2019-05-10T02:46:03.982Z,91.00
2019-05-10T02:48:35.740Z,90.90
2019-05-10T02:51:10.268Z,91.00
2019-05-10T02:53:45.222Z,91.10
2019-05-10T02:56:29.212Z,91.00
2019-05-10T02:58:48.821Z,91.00
2019-05-10T03:01:23.598Z,90.90
2019-05-10T03:03:54.538Z,91.00
2019-05-10T03:06:28.445Z,91.00
2019-05-10T03:09:04.203Z,91.40
2019-05-10T03:11:49.621Z,91.10
2019-05-10T03:14:21.337Z,91.10
2019-05-10T03:16:52.125Z,91.20
2019-05-10T03:19:24.277Z,91.30
2019-05-10T03:22:10.198Z,91.40
2019-05-10T03:24:42.757Z,91.40
2019-05-10T03:27:13.745Z,91.50
2019-05-10T03:29:45.453Z,91.50
2019-05-10T03:32:17.141Z,91.30
2019-05-10T03:34:47.604Z,91.80
2019-05-10T03:37:19.921Z,91.40
2019-05-10T03:39:53.256Z,91.30
2019-05-10T03:42:26.603Z,91.40
2019-05-10T03:44:56.927Z,91.40
2019-05-10T03:47:30.119Z,91.40
2019-05-10T03:50:00.343Z,91.30
2019-05-10T03:52:33.596Z,91.30
2019-05-10T03:55:09.550Z,91.30
2019-05-10T03:57:44.045Z,91.30
2019-05-10T04:00:16.412Z,91.30
2019-05-10T04:02:49.479Z,91.20
2019-05-10T04:05:22.692Z,91.20
2019-05-10T04:07:55.457Z,91.10
2019-05-10T04:10:28.750Z,91.10
2019-05-10T04:12:58.977Z,91.10
2019-05-10T04:15:32.447Z,91.00
2019-05-10T04:18:10.337Z,91.00
2019-05-10T04:20:48.632Z,91.00
2019-05-10T04:23:24.764Z,90.80
2019-05-10T04:25:59.870Z,90.80
2019-05-10T04:28:31.483Z,90.80
2019-05-10T04:31:03.762Z,90.80
2019-05-10T04:33:40.485Z,90.80
2019-05-10T04:36:16.490Z,90.70
2019-05-10T04:38:48.403Z,90.70
2019-05-10T04:41:21.748Z,90.60
2019-05-10T04:43:53.559Z,90.40
2019-05-10T04:46:28.332Z,90.20
2019-05-10T04:49:11.439Z,90.20
2019-05-10T04:51:33.692Z,90.10
2019-05-10T04:54:09.584Z,90.10
2019-05-10T04:56:43.285Z,90.00
2019-05-10T04:59:16.649Z,89.90
2019-05-10T05:01:49.725Z,89.50
2019-05-10T05:04:23.322Z,89.20
2019-05-10T05:06:55.550Z,88.90
2019-05-10T05:09:42.289Z,88.60
2019-05-10T05:12:03.652Z,88.60
2019-05-10T05:14:38.943Z,88.40
2019-05-10T05:17:12.731Z,88.30
2019-05-10T05:19:44.713Z,88.20
2019-05-10T05:22:15.247Z,88.20
2019-05-10T05:24:55.070Z,87.80
2019-05-10T05:27:35.348Z,87.70
2019-05-10T05:30:07.146Z,88.40
2019-05-10T05:32:44.618Z,87.40
2019-05-10T05:35:20.699Z,87.10
2019-05-10T05:37:50.267Z,86.90
2019-05-10T05:40:23.410Z,86.50
2019-05-10T05:43:02.760Z,87.50
2019-05-10T05:45:35.670Z,86.40
2019-05-10T05:48:16.115Z,85.30
2019-05-10T05:50:51.687Z,85.70
2019-05-10T05:53:28.464Z,85.50
2019-05-10T05:56:12.188Z,85.50
2019-05-10T05:58:47.089Z,85.20
2019-05-10T06:01:29.380Z,84.90
2019-05-10T06:04:12.518Z,85.00
2019-05-10T06:06:42.827Z,84.90
2019-05-10T06:09:17.722Z,84.50
2019-05-10T06:11:52.656Z,83.70
2019-05-10T06:14:34.689Z,83.90
2019-05-10T06:17:06.306Z,84.10
2019-05-10T06:19:44.694Z,84.60
2019-05-10T06:22:26.285Z,84.70
2019-05-10T06:25:03.603Z,83.60
2019-05-10T06:27:43.169Z,80.70
2019-05-10T06:30:15.924Z,78.80
2019-05-10T06:33:00.976Z,76.30
2019-05-10T06:35:30.917Z,74.00
2019-05-10T06:38:05.634Z,72.80
2019-05-10T06:40:47.514Z,71.00
2019-05-10T06:43:24.000Z,70.20
2019-05-10T06:46:00.163Z,70.40
2019-05-10T06:48:37.451Z,70.20
2019-05-10T06:51:12.937Z,70.30
2019-05-10T06:53:52.515Z,71.00
2019-05-10T06:56:30.360Z,70.80
2019-05-10T06:59:13.472Z,70.00
2019-05-10T07:01:51.698Z,70.10
2019-05-10T07:04:24.861Z,69.00
2019-05-10T07:07:02.651Z,67.70
2019-05-10T07:10:01.692Z,67.10
2019-05-10T07:12:23.604Z,66.30
2019-05-10T07:14:57.775Z,65.30
2019-05-10T07:17:41.435Z,64.70
2019-05-10T07:20:10.433Z,64.70
2019-05-10T07:22:48.278Z,63.40
2019-05-10T07:25:24.393Z,61.50
2019-05-10T07:28:03.671Z,59.70
2019-05-10T07:30:52.970Z,58.90
2019-05-10T07:33:27.522Z,60.40
2019-05-10T07:36:13.522Z,61.60
2019-05-10T07:38:40.664Z,60.80
2019-05-10T07:41:19.573Z,61.40
2019-05-10T07:44:00.268Z,61.60
2019-05-10T07:46:27.510Z,62.80
2019-05-10T07:49:04.123Z,59.40
2019-05-10T07:51:38.097Z,58.80
2019-05-10T07:54:13.639Z,58.50
2019-05-10T07:56:54.604Z,57.40
2019-05-10T07:59:42.007Z,57.20
2019-05-10T08:02:13.087Z,57.60
2019-05-10T08:04:45.452Z,57.70
2019-05-10T08:07:24.276Z,57.30
2019-05-10T08:10:04.721Z,56.80
2019-05-10T08:12:41.419Z,57.00
2019-05-10T08:15:16.243Z,55.60
2019-05-10T08:17:54.250Z,55.70
2019-05-10T08:20:46.372Z,56.00
2019-05-10T08:23:17.960Z,55.30
2019-05-10T08:25:54.449Z,55.10
2019-05-10T08:28:36.479Z,55.20
2019-05-10T08:31:07.231Z,56.00
2019-05-10T08:33:44.214Z,56.10
2019-05-10T08:36:21.782Z,55.90
2019-05-10T08:39:05.061Z,55.50
2019-05-10T08:41:32.488Z,55.80
2019-05-10T08:44:04.950Z,55.20
2019-05-10T08:46:44.427Z,55.30
2019-05-10T08:49:22.124Z,54.50
2019-05-10T08:51:52.375Z,54.10
2019-05-10T08:54:28.686Z,53.50
2019-05-10T09:00:02.210Z,52.30
2019-05-10T09:02:32.779Z,51.50
2019-05-10T09:05:12.504Z,51.00
2019-05-10T09:07:47.826Z,50.60
2019-05-10T09:10:28.092Z,50.00
2019-05-10T09:13:04.209Z,50.30
2019-05-10T09:15:51.198Z,50.40
2019-05-10T09:18:23.009Z,49.40
2019-05-10T09:21:08.233Z,47.40
2019-05-10T09:23:34.910Z,48.30
2019-05-10T09:26:15.281Z,47.50
2019-05-10T09:28:47.542Z,46.30
2019-05-10T09:31:21.553Z,46.60
2019-05-10T09:33:56.225Z,44.40
2019-05-10T09:36:33.475Z,44.00
2019-05-10T09:39:24.204Z,43.90
2019-05-10T09:41:45.897Z,42.40
2019-05-10T09:44:22.883Z,42.90
2019-05-10T09:47:03.994Z,42.50
2019-05-10T09:49:33.219Z,42.20
2019-05-10T09:52:14.980Z,41.50
2019-05-10T09:54:58.361Z,41.60
2019-05-10T09:57:38.047Z,41.20
2019-05-10T10:00:22.635Z,40.60
2019-05-10T10:03:07.938Z,39.90
2019-05-10T10:05:55.073Z,38.90
2019-05-10T10:08:31.368Z,40.50
2019-05-10T10:11:15.684Z,40.00
2019-05-10T10:14:02.190Z,39.10
2019-05-10T10:16:45.796Z,39.10
2019-05-10T10:19:24.274Z,37.70
2019-05-10T10:22:05.536Z,38.70
2019-05-10T10:24:38.650Z,40.20
2019-05-10T10:27:13.742Z,37.70
2019-05-10T10:29:40.688Z,36.80
2019-05-10T10:32:11.218Z,35.10
2019-05-10T10:34:44.512Z,34.00
2019-05-10T10:37:19.402Z,31.20
2019-05-10T10:39:54.521Z,29.90
2019-05-10T10:42:26.483Z,29.30
2019-05-10T10:44:57.587Z,28.00
2019-05-10T10:47:32.179Z,28.10
2019-05-10T10:50:13.174Z,28.00
2019-05-10T10:52:40.173Z,29.40
2019-05-10T10:55:13.300Z,30.50
2019-05-10T10:57:43.241Z,31.20
2019-05-10T11:00:23.785Z,31.80
2019-05-10T11:02:58.472Z,33.10
2019-05-10T11:05:31.621Z,35.90
2019-05-10T11:08:04.714Z,37.40
2019-05-10T11:10:34.936Z,34.30
2019-05-10T11:13:13.991Z,30.80
2019-05-10T11:15:44.526Z,29.20
2019-05-10T11:18:31.834Z,28.60
2019-05-10T11:21:07.631Z,27.80
2019-05-10T11:23:49.064Z,26.70
2019-05-10T11:26:26.869Z,26.30
2019-05-10T11:28:56.977Z,25.30
2019-05-10T11:31:33.241Z,24.70
2019-05-10T11:34:10.677Z,24.70
2019-05-10T11:36:46.100Z,24.40
2019-05-10T11:39:25.969Z,24.30
2019-05-10T11:42:00.969Z,23.90
2019-05-10T11:44:28.215Z,25.20
2019-05-10T11:47:01.717Z,26.90
2019-05-10T11:49:37.877Z,27.00
2019-05-10T11:52:12.371Z,26.30
2019-05-10T11:54:46.408Z,26.00
2019-05-10T11:57:27.226Z,26.50
2019-05-10T12:00:04.453Z,26.40
2019-05-10T12:02:42.509Z,26.70
2019-05-10T12:05:17.643Z,28.20
2019-05-10T12:07:46.152Z,30.50
2019-05-10T12:10:24.834Z,32.10
2019-05-10T12:13:10.911Z,32.90
2019-05-10T12:15:42.969Z,29.80
2019-05-10T12:18:26.767Z,28.60
2019-05-10T12:21:08.976Z,27.30
2019-05-10T12:23:31.494Z,26.20
2019-05-10T12:28:43.264Z,24.60
2019-05-10T12:31:16.963Z,26.40
2019-05-10T12:33:51.908Z,27.40
2019-05-10T12:36:31.428Z,26.70
2019-05-10T12:39:01.977Z,26.20
2019-05-10T12:41:39.957Z,25.10
2019-05-10T12:44:12.462Z,26.20
2019-05-10T12:46:45.753Z,26.80
2019-05-10T12:49:36.304Z,25.60
2019-05-10T12:51:55.590Z,25.10
2019-05-10T12:54:28.533Z,25.20
2019-05-10T12:57:02.309Z,25.20
2019-05-10T12:59:34.956Z,25.80
2019-05-10T13:02:13.194Z,26.20
2019-05-10T13:04:51.950Z,28.50
2019-05-10T13:07:18.048Z,30.80
2019-05-10T13:09:50.438Z,33.90
2019-05-10T13:12:30.025Z,35.10
2019-05-10T13:15:04.451Z,35.70
2019-05-10T13:17:43.934Z,36.30
2019-05-10T13:20:12.333Z,37.00
2019-05-10T13:22:52.791Z,38.80
2019-05-10T13:25:32.204Z,39.70
2019-05-10T13:28:11.154Z,40.60
2019-05-10T13:30:33.530Z,41.90
2019-05-10T13:33:07.172Z,42.70
2019-05-10T13:35:39.135Z,43.50
2019-05-10T13:38:13.248Z,44.30
2019-05-10T13:40:45.568Z,44.70
2019-05-10T13:43:26.659Z,45.10
2019-05-10T13:45:54.260Z,45.30
2019-05-10T13:48:38.409Z,45.70
2019-05-10T13:51:08.540Z,45.80
2019-05-10T13:53:46.641Z,45.50
2019-05-10T13:56:17.575Z,43.80
2019-05-10T13:58:51.280Z,43.00
2019-05-10T14:01:23.530Z,41.70
2019-05-10T14:04:00.811Z,41.10
2019-05-10T14:06:30.421Z,40.30
2019-05-10T14:09:04.860Z,41.50
2019-05-10T14:11:46.676Z,41.60
2019-05-10T14:14:20.474Z,41.50
2019-05-10T14:16:52.112Z,41.00
2019-05-10T14:19:26.096Z,41.00
2019-05-10T14:22:06.893Z,40.80
2019-05-10T14:24:36.491Z,40.60
2019-05-10T14:27:29.908Z,41.20
2019-05-10T14:29:59.153Z,40.80
2019-05-10T14:32:30.956Z,40.60
2019-05-10T14:35:05.050Z,40.30
2019-05-10T14:37:36.604Z,40.00
2019-05-10T14:40:16.655Z,40.30
2019-05-10T14:42:47.411Z,40.20
2019-05-10T14:45:18.638Z,40.00
2019-05-10T14:47:59.029Z,39.30
2019-05-10T14:50:33.788Z,38.60
2019-05-10T14:53:06.509Z,39.30
2019-05-10T14:55:40.929Z,39.30
2019-05-10T14:58:14.179Z,38.50
2019-05-10T15:00:53.715Z,38.40
2019-05-10T15:03:26.753Z,39.10
2019-05-10T15:06:03.238Z,39.60
2019-05-10T15:08:36.314Z,40.50
2019-05-10T15:11:14.520Z,40.70
2019-05-10T15:13:50.990Z,41.10
2019-05-10T15:16:31.071Z,41.50
2019-05-10T15:18:59.626Z,41.80
2019-05-10T15:21:34.681Z,41.80
2019-05-10T15:24:11.247Z,41.70
2019-05-10T15:26:46.150Z,42.20
2019-05-10T15:29:24.630Z,41.70
2019-05-10T15:32:07.473Z,41.70
2019-05-10T15:34:39.363Z,42.00
2019-05-10T15:37:22.182Z,42.00
2019-05-10T15:40:00.489Z,42.20
2019-05-10T15:42:38.366Z,42.80
2019-05-10T15:45:14.715Z,43.00
2019-05-10T15:47:57.592Z,43.40
2019-05-10T15:50:32.483Z,43.80
2019-05-10T15:53:00.286Z,44.20
2019-05-10T15:55:35.957Z,44.60
2019-05-10T15:58:10.889Z,45.00
2019-05-10T16:00:43.949Z,45.60
2019-05-10T16:03:17.252Z,45.70
2019-05-10T16:06:00.501Z,46.70
2019-05-10T16:08:31.973Z,47.20
2019-05-10T16:11:03.830Z,47.70
2019-05-10T16:13:35.572Z,47.90
2019-05-10T16:16:09.961Z,48.00
2019-05-10T16:18:43.289Z,48.10
2019-05-10T16:21:16.874Z,48.10
2019-05-10T16:23:53.114Z,48.40
2019-05-10T16:26:29.600Z,48.50
2019-05-10T16:29:21.736Z,48.60
2019-05-10T16:31:52.118Z,48.20
2019-05-10T16:34:32.199Z,48.30
2019-05-10T16:37:06.195Z,47.80
2019-05-10T16:39:41.534Z,48.50
2019-05-10T16:42:20.972Z,49.10
2019-05-10T16:44:55.802Z,49.80
2019-05-10T16:47:26.155Z,50.10
2019-05-10T16:50:05.148Z,50.60
2019-05-10T16:52:37.353Z,50.90
2019-05-10T16:58:15.347Z,51.40
2019-05-10T17:00:54.265Z,52.10
2019-05-10T17:03:40.089Z,52.30
2019-05-10T17:06:16.412Z,52.40
2019-05-10T17:09:02.009Z,52.50
2019-05-10T17:11:46.730Z,53.10
2019-05-10T17:14:19.669Z,53.10
2019-05-10T17:17:00.120Z,52.90
2019-05-10T17:19:37.850Z,53.10
2019-05-10T17:22:18.967Z,53.40
2019-05-10T17:24:56.759Z,52.70
2019-05-10T17:27:25.516Z,52.80
2019-05-10T17:30:06.627Z,52.70
2019-05-10T17:32:33.469Z,53.00
2019-05-10T17:35:11.737Z,52.60
2019-05-10T17:37:43.712Z,52.40
2019-05-10T17:40:18.922Z,52.40
2019-05-10T17:42:52.372Z,52.40
2019-05-10T17:45:26.821Z,52.30
2019-05-10T17:47:58.535Z,52.50
2019-05-10T17:50:40.936Z,52.50
2019-05-10T17:53:08.902Z,52.70
2019-05-10T17:55:41.791Z,52.80
2019-05-10T17:58:21.276Z,53.10
2019-05-10T18:00:57.494Z,53.50
2019-05-10T18:03:43.210Z,53.50
2019-05-10T18:06:24.106Z,53.30
2019-05-10T18:08:58.642Z,53.10
2019-05-10T18:11:36.759Z,53.20
2019-05-10T18:14:12.568Z,53.50
2019-05-10T18:16:57.084Z,53.70
2019-05-10T18:19:19.165Z,54.40
2019-05-10T18:22:05.554Z,54.50
2019-05-10T18:24:44.185Z,54.70
2019-05-10T18:27:21.870Z,54.80
2019-05-10T18:29:56.445Z,55.10
2019-05-10T18:32:38.784Z,55.50
2019-05-10T18:35:14.791Z,55.70
2019-05-10T18:37:45.238Z,56.00
2019-05-10T18:40:18.963Z,56.20
2019-05-10T18:42:57.983Z,56.40
2019-05-10T18:45:30.118Z,56.80
2019-05-10T18:48:06.195Z,57.10
2019-05-10T18:50:47.240Z,57.10
2019-05-10T18:53:26.868Z,57.50
2019-05-10T18:56:08.560Z,57.80
2019-05-10T18:58:49.133Z,58.20
2019-05-10T19:01:27.183Z,58.60
2019-05-10T19:04:00.862Z,58.90
2019-05-10T19:06:36.848Z,59.20
2019-05-10T19:09:07.424Z,59.40
2019-05-10T19:11:40.873Z,59.70
2019-05-10T19:14:16.935Z,59.90
2019-05-10T19:16:50.124Z,60.00
2019-05-10T19:19:26.798Z,60.20
2019-05-10T19:22:03.168Z,60.40
2019-05-10T19:24:32.085Z,60.60
2019-05-10T19:27:19.072Z,60.50
2019-05-10T19:29:56.310Z,60.30
2019-05-10T19:32:33.614Z,60.40
2019-05-10T19:35:05.810Z,60.00
2019-05-10T19:37:44.109Z,60.80
2019-05-10T19:40:17.987Z,62.00
2019-05-10T19:42:53.607Z,61.30
2019-05-10T19:45:31.295Z,61.30
2019-05-10T19:48:00.232Z,61.20
2019-05-10T19:50:31.213Z,61.30
2019-05-10T19:53:03.891Z,61.50
2019-05-10T19:55:33.275Z,61.50
2019-05-10T19:58:09.224Z,61.70
2019-05-10T20:00:39.156Z,61.90
2019-05-10T20:03:09.106Z,62.20
2019-05-10T20:05:39.059Z,62.40
2019-05-10T20:08:09.012Z,62.80
2019-05-10T20:10:46.954Z,63.30
2019-05-10T20:13:17.020Z,63.60
2019-05-10T20:15:46.955Z,64.00
2019-05-10T20:18:16.877Z,64.70
2019-05-10T20:20:46.854Z,64.70
2019-05-10T20:23:17.400Z,65.30
2019-05-10T20:25:48.330Z,65.70
2019-05-10T20:28:18.642Z,65.90
2019-05-10T20:30:48.564Z,66.20
2019-05-10T20:33:18.593Z,66.50
2019-05-10T20:35:48.814Z,66.80
2019-05-10T20:38:18.828Z,67.00
2019-05-10T20:40:48.774Z,67.50
2019-05-10T20:43:18.695Z,67.70
2019-05-10T20:45:48.745Z,67.90
2019-05-10T20:48:18.944Z,68.30
2019-05-10T20:50:50.129Z,68.30
2019-05-10T20:53:20.041Z,69.10
2019-05-10T20:55:49.965Z,69.40
2019-05-10T20:58:19.884Z,69.60
2019-05-10T21:00:49.826Z,70.10
2019-05-10T21:03:20.889Z,70.20
2019-05-10T21:05:50.860Z,70.50
2019-05-10T21:08:20.795Z,70.00
2019-05-10T21:10:50.760Z,70.70
2019-05-10T21:13:20.724Z,70.40
2019-05-10T21:15:50.667Z,70.20
2019-05-10T21:18:22.192Z,70.50
2019-05-10T21:20:52.106Z,70.40
2019-05-10T21:23:23.541Z,70.20
2019-05-10T21:25:53.465Z,70.20
2019-05-10T21:28:23.434Z,70.20
2019-05-10T21:30:53.812Z,70.10
2019-05-10T21:33:23.856Z,70.40
2019-05-10T21:35:53.847Z,70.20
2019-05-10T21:38:32.717Z,70.00
2019-05-10T21:40:55.530Z,70.40
2019-05-10T21:43:25.523Z,69.90
2019-05-10T21:45:57.092Z,70.10
2019-05-10T21:48:27.162Z,70.10
2019-05-10T21:50:57.447Z,70.10
2019-05-10T21:53:27.559Z,70.40
2019-05-10T21:55:57.518Z,70.30
2019-05-10T21:58:35.913Z,70.50
2019-05-10T22:01:06.175Z,70.40
2019-05-10T22:03:38.891Z,70.80
2019-05-10T22:06:08.857Z,70.60
2019-05-10T22:08:48.885Z,70.80
2019-05-10T22:11:10.493Z,71.00
2019-05-10T22:13:40.578Z,71.00
2019-05-10T22:16:10.716Z,71.00
2019-05-10T22:18:41.609Z,70.80
2019-05-10T22:21:11.627Z,70.60
2019-05-10T22:23:41.764Z,70.30
2019-05-10T22:26:11.896Z,70.60
2019-05-10T22:28:41.927Z,70.30
2019-05-10T22:31:11.980Z,70.20
2019-05-10T22:33:42.063Z,70.50
2019-05-10T22:36:12.070Z,70.80
2019-05-10T22:38:44.003Z,71.10
2019-05-10T22:41:14.018Z,70.80
2019-05-10T22:43:44.238Z,70.60
2019-05-10T22:46:14.232Z,70.80
2019-05-10T22:48:44.244Z,70.70
2019-05-10T22:51:14.318Z,70.90
2019-05-10T22:53:44.330Z,70.70
2019-05-10T22:56:14.323Z,70.70
2019-05-10T22:58:44.318Z,70.90
2019-05-10T23:01:14.340Z,72.00
2019-05-10T23:03:44.403Z,71.40
2019-05-10T23:06:14.392Z,71.80
2019-05-10T23:08:44.382Z,72.20
2019-05-10T23:11:14.423Z,72.50
2019-05-10T23:13:44.470Z,72.50
2019-05-10T23:16:16.235Z,72.50
2019-05-10T23:18:46.240Z,72.50
2019-05-10T23:21:16.323Z,72.70
2019-05-10T23:23:46.324Z,72.90
2019-05-10T23:26:16.367Z,73.20
2019-05-10T23:28:46.518Z,73.30
2019-05-10T23:31:16.536Z,73.50
2019-05-10T23:33:46.551Z,73.50
2019-05-10T23:36:16.501Z,73.80
2019-05-10T23:38:52.166Z,74.90
2019-05-10T23:41:18.246Z,74.80
2019-05-10T23:43:48.285Z,74.90
2019-05-10T23:46:18.381Z,75.30
2019-05-10T23:48:48.601Z,75.70
2019-05-10T23:51:18.695Z,76.00
2019-05-10T23:53:48.688Z,76.20
2019-05-10T23:56:18.706Z,77.00
2019-05-10T23:58:48.704Z,76.80
